createdAt,value
2022-10-17T00:00:13.968Z,93968.31
2022-10-17T00:02:43.296Z,93969.94
2022-10-17T00:05:13.307Z,93972.69
2022-10-17T00:07:42.633Z,93968.44
2022-10-17T00:10:13.450Z,93974.38
2022-10-17T00:12:42.900Z,93975.47
2022-10-17T00:15:17.470Z,93973.78
2022-10-17T00:17:47.026Z,93975.38
2022-10-17T00:20:17.279Z,93974.56
2022-10-17T00:22:46.724Z,93972.94
2022-10-17T00:25:17.688Z,93983.13
2022-10-17T00:27:47.596Z,93982.31
2022-10-17T00:30:18.450Z,93976.34
2022-10-17T00:32:47.817Z,93974.75
2022-10-17T00:35:17.291Z,93979.69
2022-10-17T00:37:46.616Z,93973.84
2022-10-17T00:40:17.452Z,93971.28
2022-10-17T00:42:46.855Z,93967.72
2022-10-17T00:45:22.495Z,93972.94
2022-10-17T00:47:56.384Z,93976.44
2022-10-17T00:51:39.007Z,93974.63
2022-10-17T00:54:10.290Z,93972.94
2022-10-17T00:56:40.696Z,93977.44
2022-10-17T00:59:13.615Z,93973.91
2022-10-17T01:01:46.378Z,93975.53
2022-10-17T01:04:15.944Z,93973.78
2022-10-17T01:06:46.720Z,93977.25
2022-10-17T01:09:16.124Z,93978.94
2022-10-17T01:11:54.052Z,93968.09
2022-10-17T01:14:33.230Z,93968.94
2022-10-17T01:17:15.028Z,93965.41
2022-10-17T01:20:18.798Z,93967.03
2022-10-17T01:23:05.358Z,93974.22
2022-10-17T01:25:51.849Z,93970.25
2022-10-17T01:31:16.332Z,93976.91
2022-10-17T01:33:56.517Z,93980.50
2022-10-17T01:36:39.313Z,93971.75
2022-10-17T01:39:18.629Z,93980.38
2022-10-17T01:41:57.626Z,93982.19
2022-10-17T01:44:36.694Z,93977.03
2022-10-17T01:47:11.790Z,93980.25
2022-10-17T01:49:45.347Z,93980.16
2022-10-17T01:52:20.065Z,93981.09
2022-10-17T01:54:54.478Z,93976.78
2022-10-17T01:57:32.485Z,93976.16
2022-10-17T02:00:06.217Z,93971.75
2022-10-17T02:02:38.827Z,93974.44
2022-10-17T02:05:09.795Z,93986.38
2022-10-17T02:07:39.167Z,93991.75
2022-10-17T02:10:15.654Z,93995.34
2022-10-17T02:12:55.704Z,93998.75
2022-10-17T02:15:48.709Z,93999.66
2022-10-17T02:18:46.325Z,93994.06
2022-10-17T02:21:22.249Z,94000.78
2022-10-17T02:24:00.979Z,94000.78
2022-10-17T02:26:35.570Z,94000.63
2022-10-17T02:29:11.606Z,94003.41
2022-10-17T02:31:47.274Z,94004.19
2022-10-17T02:34:24.330Z,94005.25
2022-10-17T02:36:59.452Z,93999.19
2022-10-17T02:39:30.993Z,94003.63
2022-10-17T02:42:03.877Z,94004.47
2022-10-17T02:44:34.999Z,94005.47
2022-10-17T02:47:12.885Z,94009.06
2022-10-17T02:49:49.208Z,94006.31
2022-10-17T02:52:24.174Z,94010.78
2022-10-17T02:54:59.865Z,94014.94
2022-10-17T02:57:37.658Z,94015.88
2022-10-17T03:00:11.818Z,94009.84
2022-10-17T03:02:43.125Z,94011.63
2022-10-17T03:05:18.558Z,94000.75
2022-10-17T03:07:48.052Z,94000.06
2022-10-17T03:10:17.710Z,94010.19
2022-10-17T03:12:47.295Z,94010.94
2022-10-17T03:15:17.185Z,94008.16
2022-10-17T03:20:22.084Z,94011.13
2022-10-17T03:22:51.328Z,94012.88
2022-10-17T03:25:20.855Z,94009.38
2022-10-17T03:27:50.371Z,94010.97
2022-10-17T03:30:19.754Z,94010.13
2022-10-17T03:32:49.003Z,94009.38
2022-10-17T03:35:18.590Z,94006.94
2022-10-17T03:37:49.309Z,94006.28
2022-10-17T03:40:18.937Z,94010.34
2022-10-17T03:42:48.316Z,94007.94
2022-10-17T03:45:17.797Z,94009.84
2022-10-17T03:47:47.209Z,94017.72
2022-10-17T03:52:34.275Z,94019.59
2022-10-17T03:55:03.535Z,94022.13
2022-10-17T03:57:33.001Z,94022.19
2022-10-17T04:00:02.345Z,94020.59
2022-10-17T04:02:31.754Z,94025.16
2022-10-17T04:05:01.127Z,94026.00
2022-10-17T04:07:30.772Z,94037.13
2022-10-17T04:10:01.587Z,94018.13
2022-10-17T04:12:31.418Z,94025.84
2022-10-17T04:15:01.108Z,94038.84
2022-10-17T04:17:37.222Z,94037.06
2022-10-17T04:20:09.427Z,94037.81
2022-10-17T04:22:38.853Z,94037.84
2022-10-17T04:25:10.987Z,94041.97
2022-10-17T04:27:40.251Z,94036.88
2022-10-17T04:30:11.067Z,94044.56
2022-10-17T04:32:40.892Z,94048.91
2022-10-17T04:35:11.306Z,94049.94
2022-10-17T04:37:40.626Z,94040.69
2022-10-17T04:40:13.346Z,94046.59
2022-10-17T04:42:42.753Z,94044.00
2022-10-17T04:45:12.953Z,94042.97
2022-10-17T04:47:42.287Z,94042.28
2022-10-17T04:50:12.093Z,94043.16
2022-10-17T04:52:41.466Z,94043.88
2022-10-17T04:55:12.249Z,94050.00
2022-10-17T04:57:41.642Z,94051.63
2022-10-17T05:00:12.925Z,94054.22
2022-10-17T05:02:42.279Z,94053.31
2022-10-17T05:05:11.952Z,94061.03
2022-10-17T05:07:42.590Z,94069.44
2022-10-17T05:10:13.367Z,94069.94
2022-10-17T05:12:42.871Z,94069.88
2022-10-17T05:15:12.711Z,94069.69
2022-10-17T05:17:42.008Z,94077.25
2022-10-17T05:20:13.364Z,94075.50
2022-10-17T05:22:42.829Z,94077.88
2022-10-17T05:25:13.695Z,94084.38
2022-10-17T05:27:43.066Z,94085.00
2022-10-17T05:30:13.204Z,94088.78
2022-10-17T05:32:42.622Z,94088.63
2022-10-17T05:35:11.982Z,94090.91
2022-10-17T05:37:41.465Z,94091.38
2022-10-17T05:40:13.967Z,94094.63
2022-10-17T05:42:48.908Z,94101.06
2022-10-17T05:45:18.918Z,94097.00
2022-10-17T05:47:48.240Z,94096.94
2022-10-17T05:50:17.632Z,94102.19
2022-10-17T05:52:47.335Z,94110.13
2022-10-17T05:55:18.306Z,94114.81
2022-10-17T05:57:47.729Z,94118.63
2022-10-17T06:00:17.509Z,94122.72
2022-10-17T06:02:47.250Z,94126.44
2022-10-17T06:05:17.424Z,94126.69
2022-10-17T06:07:46.754Z,94122.41
2022-10-17T06:10:18.829Z,94127.84
2022-10-17T06:12:48.268Z,94128.78
2022-10-17T06:15:17.711Z,94137.56
2022-10-17T06:17:47.309Z,94133.00
2022-10-17T06:20:16.951Z,94133.34
2022-10-17T06:22:46.441Z,94127.69
2022-10-17T06:25:17.528Z,94139.66
2022-10-17T06:27:46.882Z,94139.16
2022-10-17T06:30:16.476Z,94144.06
2022-10-17T06:32:45.791Z,94148.22
2022-10-17T06:35:15.353Z,94143.44
2022-10-17T06:37:45.225Z,94146.44
2022-10-17T06:40:17.470Z,94151.88
2022-10-17T06:42:46.851Z,94146.69
2022-10-17T06:45:16.711Z,94149.50
2022-10-17T06:47:46.155Z,94149.66
2022-10-17T06:52:33.968Z,94149.75
2022-10-17T06:57:37.533Z,94150.44
2022-10-17T07:00:08.593Z,94154.94
2022-10-17T07:02:37.885Z,94162.97
2022-10-17T07:05:08.275Z,94157.69
2022-10-17T07:07:43.037Z,94158.47
2022-10-17T07:10:14.473Z,94154.69
2022-10-17T07:12:44.986Z,94156.53
2022-10-17T07:15:14.675Z,94162.78
2022-10-17T07:17:44.067Z,94163.28
2022-10-17T07:20:13.853Z,94161.22
2022-10-17T07:22:44.773Z,94159.69
2022-10-17T07:25:14.247Z,94164.44
2022-10-17T07:27:43.461Z,94166.13
2022-10-17T07:30:14.330Z,94161.50
2022-10-17T07:32:44.993Z,94165.03
2022-10-17T07:35:15.542Z,94165.28
2022-10-17T07:37:46.293Z,94170.78
2022-10-17T07:40:15.877Z,94174.28
2022-10-17T07:42:45.270Z,94164.19
2022-10-17T07:45:15.854Z,94173.03
2022-10-17T07:47:45.586Z,94169.94
2022-10-17T07:50:14.930Z,94173.75
2022-10-17T07:52:45.844Z,94175.34
2022-10-17T07:55:15.388Z,94173.66
2022-10-17T07:57:44.746Z,94172.00
2022-10-17T08:00:15.170Z,94174.72
2022-10-17T08:02:45.165Z,94171.28
2022-10-17T08:05:14.534Z,94177.47
2022-10-17T08:07:45.360Z,94168.09
2022-10-17T08:10:16.990Z,94170.47
2022-10-17T08:12:46.393Z,94173.06
2022-10-17T08:15:15.709Z,94176.22
2022-10-17T08:17:45.188Z,94172.88
2022-10-17T08:20:15.115Z,94175.56
2022-10-17T08:22:48.708Z,94174.13
2022-10-17T08:25:18.208Z,94169.63
2022-10-17T08:27:47.655Z,94171.41
2022-10-17T08:30:17.711Z,94171.44
2022-10-17T08:32:46.990Z,94178.41
2022-10-17T08:35:16.332Z,94178.91
2022-10-17T08:37:47.115Z,94179.06
2022-10-17T08:40:22.480Z,94170.22
2022-10-17T08:43:21.447Z,94168.19
2022-10-17T08:46:00.473Z,94169.75
2022-10-17T08:48:33.396Z,94176.13
2022-10-17T08:51:08.841Z,94176.59
2022-10-17T08:53:48.221Z,94176.50
2022-10-17T08:56:44.071Z,94174.31
2022-10-17T08:59:15.544Z,94174.66
2022-10-17T09:01:53.904Z,94176.94
2022-10-17T09:04:56.495Z,94181.75
2022-10-17T09:07:35.159Z,94178.13
2022-10-17T09:10:18.905Z,94177.31
2022-10-17T09:13:06.973Z,94176.59
2022-10-17T09:16:09.125Z,94188.22
2022-10-17T09:18:41.952Z,94181.50
2022-10-17T09:21:22.774Z,94175.63
2022-10-17T09:24:03.967Z,94181.41
2022-10-17T09:26:43.021Z,94176.50
2022-10-17T09:29:22.562Z,94174.09
2022-10-17T09:32:02.036Z,94175.75
2022-10-17T09:34:33.931Z,94171.56
2022-10-17T09:37:07.727Z,94167.25
2022-10-17T09:39:37.311Z,94170.09
2022-10-17T09:42:08.168Z,94179.00
2022-10-17T09:44:47.774Z,94172.16
2022-10-17T09:47:31.409Z,94180.94
2022-10-17T09:52:38.137Z,94171.66
2022-10-17T09:55:18.749Z,94170.81
2022-10-17T09:57:57.967Z,94172.03
2022-10-17T10:00:31.036Z,94170.84
2022-10-17T10:03:19.088Z,94165.47
2022-10-17T10:06:03.969Z,94172.66
2022-10-17T10:08:37.754Z,94166.31
2022-10-17T10:11:13.860Z,94161.72
2022-10-17T10:13:51.088Z,94159.22
2022-10-17T10:16:25.620Z,94156.59
2022-10-17T10:18:55.215Z,94162.19
2022-10-17T10:21:26.903Z,94155.00
2022-10-17T10:24:15.852Z,94146.00
2022-10-17T10:26:49.593Z,94151.53
2022-10-17T10:29:34.340Z,94138.13
2022-10-17T10:32:13.912Z,94142.28
2022-10-17T10:34:52.028Z,94142.66
2022-10-17T10:37:24.308Z,94140.38
2022-10-17T10:39:57.658Z,94133.06
2022-10-17T10:42:31.515Z,94139.28
2022-10-17T10:45:05.614Z,94137.47
2022-10-17T10:47:35.634Z,94141.56
2022-10-17T10:50:26.367Z,94136.69
2022-10-17T10:53:13.381Z,94138.56
2022-10-17T10:55:48.467Z,94139.66
2022-10-17T10:58:32.713Z,94130.28
2022-10-17T11:01:10.842Z,94129.59
2022-10-17T11:03:53.053Z,94126.69
2022-10-17T11:06:27.903Z,94130.06
2022-10-17T11:09:19.967Z,94116.22
2022-10-17T11:12:00.921Z,94115.16
2022-10-17T11:14:43.460Z,94112.81
2022-10-17T11:17:20.969Z,94113.97
2022-10-17T11:20:15.310Z,94120.50
2022-10-17T11:22:49.553Z,94117.97
2022-10-17T11:25:37.194Z,94113.97
2022-10-17T11:28:16.554Z,94119.81
2022-10-17T11:30:53.387Z,94122.97
2022-10-17T11:33:32.850Z,94105.56
2022-10-17T11:36:07.546Z,94105.31
2022-10-17T11:38:49.251Z,94109.38
2022-10-17T11:41:24.847Z,94100.31
2022-10-17T11:44:00.820Z,94105.59
2022-10-17T11:46:31.738Z,94096.84
2022-10-17T11:49:16.124Z,94098.44
2022-10-17T11:52:07.455Z,94095.31
2022-10-17T11:54:43.167Z,94100.22
2022-10-17T11:57:37.607Z,94095.03
2022-10-17T12:00:39.319Z,94089.84
2022-10-17T12:03:41.512Z,94088.97
2022-10-17T12:06:22.932Z,94094.19
2022-10-17T12:09:13.827Z,94096.50
2022-10-17T12:11:54.254Z,94087.38
2022-10-17T12:14:45.407Z,94088.19
2022-10-17T12:17:35.143Z,94095.03
2022-10-17T12:20:30.722Z,94093.75
2022-10-17T12:23:20.222Z,94096.72
2022-10-17T12:25:57.091Z,94098.41
2022-10-17T12:28:33.499Z,94102.00
2022-10-17T12:31:07.352Z,94097.81
2022-10-17T12:33:51.627Z,94096.97
2022-10-17T12:36:48.437Z,94102.38
2022-10-17T12:39:51.872Z,94101.50
2022-10-17T12:42:48.966Z,94103.31
2022-10-17T12:45:53.151Z,94096.13
2022-10-17T12:53:06.688Z,94096.47
2022-10-17T12:55:36.010Z,94101.16
2022-10-17T12:58:08.430Z,94100.88
2022-10-17T13:00:59.448Z,94106.13
2022-10-17T13:03:42.052Z,94110.25
2022-10-17T13:06:22.263Z,94105.03
2022-10-17T13:09:03.509Z,94111.50
2022-10-17T13:11:37.424Z,94110.69
2022-10-17T13:14:15.391Z,94115.72
2022-10-17T13:16:56.372Z,94112.47
2022-10-17T13:19:30.892Z,94107.03
2022-10-17T13:22:06.723Z,94109.19
2022-10-17T13:24:40.294Z,94111.31
2022-10-17T13:27:27.916Z,94109.97
2022-10-17T13:29:59.154Z,94114.50
2022-10-17T13:32:37.951Z,94120.91
2022-10-17T13:35:10.210Z,94120.19
2022-10-17T13:37:41.871Z,94119.06
2022-10-17T13:43:18.180Z,94124.47
2022-10-17T13:45:52.053Z,94123.84
2022-10-17T13:48:25.171Z,94127.75
2022-10-17T13:51:01.735Z,94120.28
2022-10-17T13:53:35.531Z,94120.78
2022-10-17T13:56:32.908Z,94123.50
2022-10-17T13:59:23.244Z,94116.91
2022-10-17T14:01:52.947Z,94129.38
2022-10-17T14:04:22.290Z,94126.31
2022-10-17T14:06:52.524Z,94129.69
2022-10-17T14:09:26.493Z,94124.22
2022-10-17T14:12:05.068Z,94122.09
2022-10-17T14:14:58.120Z,94128.31
2022-10-17T14:17:30.403Z,94124.53
2022-10-17T14:20:40.450Z,94120.41
2022-10-17T14:23:20.839Z,94119.22
2022-10-17T14:25:43.900Z,94116.59
2022-10-17T14:28:18.695Z,94119.00
2022-10-17T14:30:56.647Z,94122.94
2022-10-17T14:33:31.264Z,94122.50
2022-10-17T14:36:06.484Z,94125.50
2022-10-17T14:38:36.545Z,94122.53
2022-10-17T14:44:25.267Z,94137.31
2022-10-17T14:47:05.990Z,94144.56
2022-10-17T14:49:43.365Z,94141.34
2022-10-17T14:52:27.296Z,94144.66
2022-10-17T14:54:57.993Z,94145.41
2022-10-17T14:57:45.443Z,94150.25
2022-10-17T15:00:20.878Z,94148.91
2022-10-17T15:02:52.313Z,94146.97
2022-10-17T15:05:23.291Z,94145.34
2022-10-17T15:07:52.806Z,94147.75
2022-10-17T15:10:35.084Z,94149.13
2022-10-17T15:15:56.386Z,94157.69
2022-10-17T15:18:25.689Z,94156.53
2022-10-17T15:21:04.633Z,94156.13
2022-10-17T15:23:34.494Z,94163.63
2022-10-17T15:26:03.924Z,94157.13
2022-10-17T15:28:33.255Z,94153.44
2022-10-17T15:31:04.086Z,94161.34
2022-10-17T15:33:33.405Z,94166.66
2022-10-17T15:36:02.709Z,94176.53
2022-10-17T15:38:32.011Z,94179.69
2022-10-17T15:41:01.304Z,94173.28
2022-10-17T15:43:30.667Z,94173.59
2022-10-17T15:46:04.026Z,94178.97
2022-10-17T15:48:34.471Z,94173.47
2022-10-17T15:52:33.957Z,94182.38
2022-10-17T15:55:05.374Z,94182.75
2022-10-17T15:57:40.264Z,94191.31
2022-10-17T16:00:17.911Z,94192.25
2022-10-17T16:02:48.007Z,94194.81
2022-10-17T16:05:19.737Z,94203.16
2022-10-17T16:07:50.609Z,94204.47
2022-10-17T16:10:20.985Z,94200.41
2022-10-17T16:12:50.677Z,94203.44
2022-10-17T16:15:23.749Z,94206.25
2022-10-17T16:17:54.270Z,94210.97
2022-10-17T16:20:25.635Z,94210.19
2022-10-17T16:23:00.627Z,94215.47
2022-10-17T16:25:31.811Z,94217.59
2022-10-17T16:28:03.047Z,94219.31
2022-10-17T16:30:33.915Z,94222.44
2022-10-17T16:33:03.212Z,94226.22
2022-10-17T16:35:36.576Z,94226.56
2022-10-17T16:38:09.648Z,94220.88
2022-10-17T16:40:41.466Z,94232.31
2022-10-17T16:43:14.459Z,94240.63
2022-10-17T16:45:43.920Z,94239.84
2022-10-17T16:48:13.405Z,94244.25
2022-10-17T16:50:43.143Z,94244.50
2022-10-17T16:53:13.816Z,94238.75
2022-10-17T16:55:43.307Z,94237.91
2022-10-17T16:58:12.768Z,94244.31
2022-10-17T17:00:42.210Z,94241.91
2022-10-17T17:03:11.515Z,94247.53
2022-10-17T17:05:41.048Z,94249.22
2022-10-17T17:08:12.569Z,94248.16
2022-10-17T17:10:49.589Z,94257.50
2022-10-17T17:13:19.767Z,94255.34
2022-10-17T17:15:53.757Z,94255.81
2022-10-17T17:18:23.264Z,94249.38
2022-10-17T17:20:52.488Z,94262.00
2022-10-17T17:23:21.729Z,94258.94
2022-10-17T17:25:57.671Z,94258.94
2022-10-17T17:28:27.565Z,94255.81
2022-10-17T17:30:57.668Z,94260.69
2022-10-17T17:33:28.582Z,94265.59
2022-10-17T17:35:59.004Z,94268.28
2022-10-17T17:38:29.992Z,94265.03
2022-10-17T17:41:00.865Z,94269.38
2022-10-17T17:43:31.067Z,94269.41
2022-10-17T17:46:03.687Z,94274.66
2022-10-17T17:48:33.027Z,94271.25
2022-10-17T17:51:06.045Z,94268.97
2022-10-17T17:53:36.035Z,94269.94
2022-10-17T17:56:10.252Z,94268.13
2022-10-17T17:58:39.909Z,94272.31
2022-10-17T18:01:15.066Z,94275.66
2022-10-17T18:03:44.683Z,94274.13
2022-10-17T18:06:14.590Z,94272.53
2022-10-17T18:08:47.790Z,94274.31
2022-10-17T18:11:21.247Z,94279.66
2022-10-17T18:13:56.738Z,94279.06
2022-10-17T18:16:26.848Z,94278.47
2022-10-17T18:18:56.509Z,94286.25
2022-10-17T18:21:25.992Z,94279.28
2022-10-17T18:23:55.264Z,94281.97
2022-10-17T18:26:26.043Z,94288.06
2022-10-17T18:28:55.492Z,94276.31
2022-10-17T18:31:28.709Z,94273.88
2022-10-17T18:34:00.292Z,94272.97
2022-10-17T18:36:31.343Z,94272.38
2022-10-17T18:39:02.566Z,94273.13
2022-10-17T18:41:34.767Z,94275.91
2022-10-17T18:44:04.872Z,94281.16
2022-10-17T18:46:40.767Z,94270.25
2022-10-17T18:52:33.643Z,94278.84
2022-10-17T18:55:02.987Z,94275.41
2022-10-17T18:57:32.545Z,94282.34
2022-10-17T19:00:02.047Z,94290.28
2022-10-17T19:02:35.532Z,94287.06
2022-10-17T19:05:08.108Z,94289.88
2022-10-17T19:07:38.976Z,94282.34
2022-10-17T19:10:09.303Z,94284.09
2022-10-17T19:12:38.503Z,94298.81
2022-10-17T19:15:09.188Z,94294.59
2022-10-17T19:17:38.428Z,94296.22
2022-10-17T19:20:09.790Z,94292.69
2022-10-17T19:22:40.501Z,94297.13
2022-10-17T19:25:11.012Z,94301.50
2022-10-17T19:27:40.367Z,94300.69
2022-10-17T19:30:12.829Z,94306.06
2022-10-17T19:32:42.311Z,94301.88
2022-10-17T19:35:12.636Z,94301.94
2022-10-17T19:37:43.352Z,94303.03
2022-10-17T19:40:14.589Z,94304.88
2022-10-17T19:42:44.084Z,94305.88
2022-10-17T19:45:13.574Z,94300.66
2022-10-17T19:47:43.191Z,94305.84
2022-10-17T19:50:12.726Z,94303.25
2022-10-17T19:52:43.571Z,94301.50
2022-10-17T19:55:13.052Z,94301.59
2022-10-17T19:57:42.381Z,94302.50
2022-10-17T20:00:13.350Z,94292.94
2022-10-17T20:02:42.626Z,94297.25
2022-10-17T20:05:18.641Z,94292.16
2022-10-17T20:07:49.753Z,94288.03
2022-10-17T20:10:19.927Z,94293.31
2022-10-17T20:12:49.248Z,94294.03
2022-10-17T20:15:18.848Z,94294.94
2022-10-17T20:17:48.147Z,94293.22
2022-10-17T20:20:17.649Z,94298.50
2022-10-17T20:22:49.290Z,94295.09
2022-10-17T20:25:19.131Z,94292.56
2022-10-17T20:27:50.055Z,94295.84
2022-10-17T20:30:19.536Z,94294.19
2022-10-17T20:32:48.863Z,94290.88
2022-10-17T20:35:18.324Z,94277.88
2022-10-17T20:37:49.207Z,94281.31
2022-10-17T20:40:35.707Z,94287.38
2022-10-17T20:43:06.871Z,94278.00
2022-10-17T20:45:50.596Z,94275.59
2022-10-17T20:48:21.542Z,94284.31
2022-10-17T20:50:51.648Z,94282.69
2022-10-17T20:53:38.210Z,94282.81
2022-10-17T20:56:10.224Z,94280.25
2022-10-17T20:58:39.767Z,94272.53
2022-10-17T21:01:10.569Z,94278.56
2022-10-17T21:03:43.878Z,94279.41
2022-10-17T21:06:18.331Z,94282.94
2022-10-17T21:08:50.326Z,94279.66
2022-10-17T21:11:21.909Z,94282.34
2022-10-17T21:13:58.370Z,94278.06
2022-10-17T21:16:28.898Z,94284.13
2022-10-17T21:18:59.125Z,94278.06
2022-10-17T21:21:31.266Z,94290.22
2022-10-17T21:24:04.085Z,94287.09
2022-10-17T21:26:34.734Z,94285.38
2022-10-17T21:29:06.044Z,94281.13
2022-10-17T21:31:37.427Z,94283.66
2022-10-17T21:34:10.085Z,94269.84
2022-10-17T21:36:40.466Z,94267.13
2022-10-17T21:39:12.633Z,94268.94
2022-10-17T21:41:42.945Z,94266.47
2022-10-17T21:44:16.244Z,94265.81
2022-10-17T21:46:46.286Z,94270.16
2022-10-17T21:52:33.757Z,94260.03
2022-10-17T21:55:03.268Z,94262.47
2022-10-17T21:57:32.548Z,94262.53
2022-10-17T22:00:01.765Z,94272.16
2022-10-17T22:02:31.684Z,94262.59
2022-10-17T22:05:01.327Z,94263.38
2022-10-17T22:07:30.549Z,94254.91
2022-10-17T22:10:01.367Z,94256.72
2022-10-17T22:12:30.966Z,94268.06
2022-10-17T22:15:00.605Z,94257.13
2022-10-17T22:17:30.354Z,94258.88
2022-10-17T22:19:59.769Z,94254.75
2022-10-17T22:22:29.044Z,94254.00
2022-10-17T22:24:59.861Z,94254.97
2022-10-17T22:27:29.489Z,94256.06
2022-10-17T22:29:59.149Z,94264.63
2022-10-17T22:32:28.421Z,94264.75
2022-10-17T22:34:57.743Z,94261.16
2022-10-17T22:37:26.979Z,94262.00
2022-10-17T22:39:56.445Z,94258.50
2022-10-17T22:42:31.714Z,94260.19
2022-10-17T22:45:01.163Z,94250.72
2022-10-17T22:47:31.958Z,94255.09
2022-10-17T22:50:01.579Z,94253.38
2022-10-17T22:52:31.253Z,94246.53
2022-10-17T22:55:00.694Z,94250.00
2022-10-17T22:57:31.628Z,94249.28
2022-10-17T23:00:01.576Z,94257.97
2022-10-17T23:02:31.133Z,94256.41
2022-10-17T23:05:01.170Z,94255.69
2022-10-17T23:07:30.847Z,94247.13
2022-10-17T23:10:00.126Z,94256.78
2022-10-17T23:12:31.088Z,94246.53
2022-10-17T23:15:00.574Z,94245.63
2022-10-17T23:17:29.847Z,94249.91
2022-10-17T23:19:59.306Z,94239.56
2022-10-17T23:22:28.923Z,94238.78
2022-10-17T23:24:58.304Z,94236.94
2022-10-17T23:27:27.573Z,94233.53
2022-10-17T23:29:58.409Z,94237.91
2022-10-17T23:32:28.147Z,94232.16
2022-10-17T23:34:57.629Z,94236.59
2022-10-17T23:37:27.182Z,94239.34
2022-10-17T23:39:56.484Z,94231.56
2022-10-17T23:42:26.087Z,94231.59
2022-10-17T23:44:57.127Z,94232.56
2022-10-17T23:47:26.654Z,94235.25
2022-10-17T23:49:55.952Z,94226.72
2022-10-17T23:52:25.586Z,94225.66
2022-10-17T23:54:55.004Z,94223.97
2022-10-17T23:57:24.766Z,94221.34
2022-10-17T23:59:54.083Z,94223.88
